Time;durP1;ratioP1;P1;durP2;ratioP2;P2;SDS_P1;SDS_P2;PMS_P1;PMS_P2;Temp;Humidity;BMP_temperature;BMP_pressure;BME280_temperature;BME280_humidity;BME280_pressure;Samples;Min_cycle;Max_cycle;Signal;HPM_P1;HPM_P2
2022/06/16 00:00:51;;;;;;;3.33;2.72;;;;;;;;;;4389081;32;20399;-56
2022/06/16 00:03:17;;;;;;;3.05;2.70;;;;;;;;;;4389011;32;20255;-56
2022/06/16 00:05:44;;;;;;;5.60;2.78;;;;;;;;;;4389480;32;20638;-56
2022/06/16 00:08:12;;;;;;;9.27;3.50;;;;;;;;;;4388479;32;20330;-56
2022/06/16 00:11:15;;;;;;;6.15;2.65;;;;;;;;;;4389266;32;20277;-56
2022/06/16 00:13:24;;;;;;;4.35;3.10;;;;;;;;;;4388907;32;20229;-56
2022/06/16 00:15:49;;;;;;;5.05;2.80;;;;;;;;;;4388860;32;20546;-55
2022/06/16 00:18:14;;;;;;;4.10;2.83;;;;;;;;;;4389053;32;20218;-56
2022/06/16 00:20:40;;;;;;;4.62;3.00;;;;;;;;;;4390816;32;20263;-55
2022/06/16 00:23:06;;;;;;;3.42;2.78;;;;;;;;;;4403501;32;21300;-55
2022/06/16 00:25:32;;;;;;;5.60;3.40;;;;;;;;;;4390081;32;20301;-56
2022/06/16 00:27:58;;;;;;;7.72;3.20;;;;;;;;;;4404099;32;20578;-55
2022/06/16 00:30:23;;;;;;;3.35;2.75;;;;;;;;;;4403793;32;20258;-56
2022/06/16 00:32:48;;;;;;;5.90;3.47;;;;;;;;;;4403716;32;20210;-61
2022/06/16 00:35:14;;;;;;;4.90;3.28;;;;;;;;;;4404224;32;20202;-55
2022/06/16 00:37:39;;;;;;;4.12;3.22;;;;;;;;;;4392095;32;20634;-56
2022/06/16 00:40:06;;;;;;;5.07;3.12;;;;;;;;;;4388782;32;20217;-56
2022/06/16 00:42:32;;;;;;;7.40;3.20;;;;;;;;;;4388591;32;20292;-56
2022/06/16 00:44:57;;;;;;;5.95;3.40;;;;;;;;;;4388856;32;20292;-56
2022/06/16 00:47:28;;;;;;;7.85;3.12;;;;;;;;;;4399124;32;20817;-56
2022/06/16 00:49:57;;;;;;;5.43;3.00;;;;;;;;;;4403993;32;20225;-56
2022/06/16 00:52:28;;;;;;;4.68;2.85;;;;;;;;;;4403541;32;20198;-56
2022/06/16 00:55:04;;;;;;;6.28;3.15;;;;;;;;;;4403451;32;20218;-56
2022/06/16 00:57:40;;;;;;;5.53;3.20;;;;;;;;;;4403837;32;20663;-56
2022/06/16 01:00:16;;;;;;;4.62;3.08;;;;;;;;;;4403815;32;20300;-56
2022/06/16 01:02:41;;;;;;;6.20;3.30;;;;;;;;;;4403635;32;20295;-56
2022/06/16 01:05:07;;;;;;;3.03;2.72;;;;;;;;;;4403333;32;20661;-56
2022/06/16 01:07:37;;;;;;;3.45;2.50;;;;;;;;;;4403229;32;20317;-55
2022/06/16 01:10:03;;;;;;;3.37;2.50;;;;;;;;;;4403648;32;20210;-56
2022/06/16 01:16:21;;;;;;;5.25;2.90;;;;;;;;;;4403236;32;20380;-56
2022/06/16 01:19:00;;;;;;;4.05;3.28;;;;;;;;;;4389291;32;20527;-55
2022/06/16 01:21:44;;;;;;;5.62;2.65;;;;;;;;;;4403229;32;20284;-57
2022/06/16 01:24:47;;;;;;;6.45;3.03;;;;;;;;;;4403074;32;20217;-56
2022/06/16 01:27:28;;;;;;;6.62;2.70;;;;;;;;;;4403100;32;20422;-55
2022/06/16 01:30:04;;;;;;;4.53;2.97;;;;;;;;;;4402945;32;20252;-56
2022/06/16 01:32:46;;;;;;;8.35;2.85;;;;;;;;;;4403051;32;20370;-55
2022/06/16 01:35:28;;;;;;;5.65;3.10;;;;;;;;;;4403273;32;20220;-56
2022/06/16 01:38:23;;;;;;;4.62;3.37;;;;;;;;;;4389500;32;20237;-55
2022/06/16 01:41:01;;;;;;;9.88;4.00;;;;;;;;;;4382508;32;20438;-56
2022/06/16 01:43:39;;;;;;;4.03;3.12;;;;;;;;;;4397026;32;20205;-55
2022/06/16 01:46:23;;;;;;;3.62;2.92;;;;;;;;;;4402957;32;20252;-55
2022/06/16 01:48:53;;;;;;;8.98;3.37;;;;;;;;;;4403078;32;20328;-56
2022/06/16 01:51:24;;;;;;;4.93;3.10;;;;;;;;;;4402741;32;20693;-56
2022/06/16 01:54:14;;;;;;;4.87;3.08;;;;;;;;;;4402463;32;20244;-57
2022/06/16 01:57:01;;;;;;;6.15;3.70;;;;;;;;;;4389107;32;20394;-57
2022/06/16 01:59:34;;;;;;;7.75;3.08;;;;;;;;;;4402649;32;20213;-57
2022/06/16 02:02:05;;;;;;;9.35;3.33;;;;;;;;;;4402896;32;20212;-57
2022/06/16 02:04:42;;;;;;;14.87;3.58;;;;;;;;;;4402881;32;20224;-57
2022/06/16 02:07:13;;;;;;;3.85;2.58;;;;;;;;;;4402689;32;20353;-57
2022/06/16 02:09:42;;;;;;;4.60;3.15;;;;;;;;;;4402842;32;20550;-56
2022/06/16 02:12:55;;;;;;;8.23;3.35;;;;;;;;;;4402430;32;20210;-56
2022/06/16 02:15:01;;;;;;;4.68;3.22;;;;;;;;;;4402784;32;20213;-56
2022/06/16 02:17:27;;;;;;;4.85;3.15;;;;;;;;;;4402808;32;20209;-56
2022/06/16 02:19:52;;;;;;;3.65;2.97;;;;;;;;;;4402821;32;20282;-56
2022/06/16 02:22:18;;;;;;;7.60;3.58;;;;;;;;;;4402017;32;20198;-57
2022/06/16 02:24:43;;;;;;;8.95;2.67;;;;;;;;;;4402446;32;20331;-56
2022/06/16 02:27:08;;;;;;;5.18;3.03;;;;;;;;;;4402514;32;20618;-56
2022/06/16 02:29:37;;;;;;;6.60;3.47;;;;;;;;;;4402644;32;20268;-57
2022/06/16 02:32:37;;;;;;;3.70;2.72;;;;;;;;;;4402511;32;20570;-56
2022/06/16 02:35:20;;;;;;;4.90;3.45;;;;;;;;;;4402407;32;20221;-56
2022/06/16 02:37:52;;;;;;;3.55;3.25;;;;;;;;;;4389725;32;20206;-56
2022/06/16 02:40:17;;;;;;;4.40;2.70;;;;;;;;;;4400518;32;20264;-56
2022/06/16 02:43:08;;;;;;;3.75;3.35;;;;;;;;;;4402151;32;20217;-57
2022/06/16 02:45:42;;;;;;;6.00;3.25;;;;;;;;;;4378599;32;20637;-57
2022/06/16 02:48:14;;;;;;;4.45;3.25;;;;;;;;;;4402402;32;20244;-56
2022/06/16 02:51:03;;;;;;;5.70;3.97;;;;;;;;;;4402362;32;20274;-56
2022/06/16 02:53:44;;;;;;;4.50;3.20;;;;;;;;;;4402228;32;20248;-56
2022/06/16 02:56:19;;;;;;;7.12;3.33;;;;;;;;;;4405182;32;20197;-56
2022/06/16 02:58:47;;;;;;;5.35;3.10;;;;;;;;;;4405391;32;20292;-56
2022/06/16 03:01:12;;;;;;;8.80;3.28;;;;;;;;;;4405143;32;20202;-56
2022/06/16 03:03:38;;;;;;;6.20;3.83;;;;;;;;;;4405282;32;20248;-56
2022/06/16 03:06:04;;;;;;;5.95;3.58;;;;;;;;;;4405129;32;20193;-56
2022/06/16 03:08:39;;;;;;;9.23;4.12;;;;;;;;;;4405045;32;20217;-56
2022/06/16 03:11:05;;;;;;;4.82;3.47;;;;;;;;;;4405058;32;20304;-56
2022/06/16 03:13:32;;;;;;;4.10;3.42;;;;;;;;;;4405251;32;20842;-56
2022/06/16 03:16:00;;;;;;;8.23;3.70;;;;;;;;;;4404914;32;20229;-56
2022/06/16 03:18:26;;;;;;;6.28;3.20;;;;;;;;;;4405081;32;20248;-56
2022/06/16 03:20:52;;;;;;;6.75;3.75;;;;;;;;;;4404947;32;20292;-56
2022/06/16 03:23:19;;;;;;;8.25;3.47;;;;;;;;;;4404536;32;20221;-56
2022/06/16 03:25:45;;;;;;;11.20;3.85;;;;;;;;;;4405233;32;20646;-56
2022/06/16 03:28:12;;;;;;;8.05;3.15;;;;;;;;;;4404906;32;20290;-56
2022/06/16 03:30:39;;;;;;;8.60;4.05;;;;;;;;;;4404755;32;20273;-56
2022/06/16 03:33:07;;;;;;;6.87;3.17;;;;;;;;;;4404639;32;20237;-56
2022/06/16 03:35:32;;;;;;;4.35;3.30;;;;;;;;;;4404392;32;20292;-58
2022/06/16 03:38:11;;;;;;;5.10;3.62;;;;;;;;;;4390833;32;20273;-56
2022/06/16 03:40:37;;;;;;;8.98;3.67;;;;;;;;;;4389676;32;20190;-56
2022/06/16 03:43:05;;;;;;;7.47;3.83;;;;;;;;;;4389385;32;20276;-57
2022/06/16 03:45:30;;;;;;;10.80;4.97;;;;;;;;;;4389269;32;20345;-55
2022/06/16 03:47:56;;;;;;;4.80;3.17;;;;;;;;;;4403316;32;20210;-55
2022/06/16 03:50:21;;;;;;;12.43;4.90;;;;;;;;;;4404799;32;20307;-56
2022/06/16 03:52:47;;;;;;;8.90;3.80;;;;;;;;;;4404024;32;20567;-56
2022/06/16 03:55:13;;;;;;;18.17;3.70;;;;;;;;;;4404703;32;20189;-56
2022/06/16 03:57:38;;;;;;;5.75;3.58;;;;;;;;;;4404187;32;20658;-56
2022/06/16 04:00:07;;;;;;;7.35;3.55;;;;;;;;;;4404230;32;20233;-56
2022/06/16 04:02:32;;;;;;;6.60;3.60;;;;;;;;;;4404424;32;20276;-56
2022/06/16 04:04:58;;;;;;;4.10;3.30;;;;;;;;;;4403999;32;20218;-56
2022/06/16 04:07:23;;;;;;;7.20;3.80;;;;;;;;;;4404007;32;20252;-56
2022/06/16 04:09:49;;;;;;;4.78;3.55;;;;;;;;;;4404404;32;20260;-56
2022/06/16 04:12:14;;;;;;;7.43;3.58;;;;;;;;;;4404162;32;20672;-57
2022/06/16 04:14:40;;;;;;;11.82;3.58;;;;;;;;;;4404486;32;20336;-56
2022/06/16 04:17:06;;;;;;;4.85;3.60;;;;;;;;;;4404205;32;20202;-56
2022/06/16 04:19:32;;;;;;;9.55;4.43;;;;;;;;;;4404278;32;20411;-56
2022/06/16 04:21:57;;;;;;;11.70;3.75;;;;;;;;;;4389649;32;20820;-56
2022/06/16 04:24:23;;;;;;;5.80;3.70;;;;;;;;;;4404101;32;20252;-55
2022/06/16 04:26:51;;;;;;;4.35;3.22;;;;;;;;;;4404144;32;20229;-57
2022/06/16 04:29:18;;;;;;;4.97;3.72;;;;;;;;;;4404214;32;20267;-56
2022/06/16 04:31:44;;;;;;;17.62;4.12;;;;;;;;;;4403780;32;20260;-56
2022/06/16 04:34:09;;;;;;;9.30;4.47;;;;;;;;;;4404079;32;20770;-57
2022/06/16 04:36:35;;;;;;;8.73;3.87;;;;;;;;;;4398672;32;20314;-56
2022/06/16 04:39:01;;;;;;;9.10;4.35;;;;;;;;;;4388569;32;20634;-56
2022/06/16 04:41:27;;;;;;;7.30;3.75;;;;;;;;;;4388546;32;20265;-57
2022/06/16 04:43:53;;;;;;;15.63;7.10;;;;;;;;;;4388681;32;20225;-56
2022/06/16 04:46:20;;;;;;;9.32;4.65;;;;;;;;;;4392544;32;20278;-56
2022/06/16 04:48:45;;;;;;;9.95;4.60;;;;;;;;;;4403759;32;20217;-56
2022/06/16 04:51:12;;;;;;;5.97;3.92;;;;;;;;;;4403584;32;20245;-56
2022/06/16 04:53:38;;;;;;;6.68;4.07;;;;;;;;;;4403409;32;20286;-56
2022/06/16 04:56:06;;;;;;;6.68;3.78;;;;;;;;;;4403599;32;20224;-56
2022/06/16 04:58:31;;;;;;;8.13;4.45;;;;;;;;;;4403488;32;20304;-57
2022/06/16 05:00:57;;;;;;;18.80;4.57;;;;;;;;;;4403913;32;20301;-56
2022/06/16 05:03:26;;;;;;;4.18;3.35;;;;;;;;;;4403320;32;20209;-56
2022/06/16 05:05:52;;;;;;;4.82;4.15;;;;;;;;;;4403331;32;20662;-56
2022/06/16 05:08:19;;;;;;;4.72;3.75;;;;;;;;;;4403189;32;20252;-56
2022/06/16 05:10:49;;;;;;;7.07;4.22;;;;;;;;;;4403529;32;20240;-56
2022/06/16 05:13:16;;;;;;;4.25;3.62;;;;;;;;;;4403348;32;20237;-56
2022/06/16 05:15:42;;;;;;;5.90;3.42;;;;;;;;;;4403433;32;20340;-56
2022/06/16 05:18:09;;;;;;;7.35;3.40;;;;;;;;;;4402518;32;20275;-57
2022/06/16 05:20:35;;;;;;;5.85;3.50;;;;;;;;;;4403154;32;20205;-56
2022/06/16 05:23:01;;;;;;;12.35;4.03;;;;;;;;;;4402679;32;20276;-56
2022/06/16 05:25:27;;;;;;;7.05;3.87;;;;;;;;;;4403205;32;20194;-56
2022/06/16 05:27:52;;;;;;;11.25;4.78;;;;;;;;;;4388981;32;20279;-56
2022/06/16 05:30:18;;;;;;;5.18;3.92;;;;;;;;;;4403046;32;20269;-56
2022/06/16 05:32:43;;;;;;;6.57;3.58;;;;;;;;;;4403053;32;20338;-56
2022/06/16 05:35:09;;;;;;;6.80;3.92;;;;;;;;;;4403463;32;20690;-56
2022/06/16 05:37:35;;;;;;;5.53;3.97;;;;;;;;;;4391831;32;20264;-57
2022/06/16 05:40:01;;;;;;;22.02;6.22;;;;;;;;;;4387892;32;20330;-57
2022/06/16 05:42:26;;;;;;;9.77;5.55;;;;;;;;;;4387522;32;20609;-56
2022/06/16 05:44:52;;;;;;;18.05;5.15;;;;;;;;;;4387192;32;20257;-57
2022/06/16 05:47:18;;;;;;;7.53;4.00;;;;;;;;;;4397491;32;20339;-55
2022/06/16 05:49:44;;;;;;;5.45;4.22;;;;;;;;;;4402459;32;20252;-55
2022/06/16 05:52:15;;;;;;;9.05;4.05;;;;;;;;;;4402232;32;20239;-55
2022/06/16 05:54:41;;;;;;;6.18;3.62;;;;;;;;;;4402930;32;20218;-55
2022/06/16 05:57:08;;;;;;;5.65;3.70;;;;;;;;;;4402721;32;20642;-56
2022/06/16 05:59:35;;;;;;;10.38;4.90;;;;;;;;;;4402438;32;20225;-56
2022/06/16 06:02:00;;;;;;;8.13;3.90;;;;;;;;;;4402459;32;20280;-56
2022/06/16 06:04:26;;;;;;;6.25;4.03;;;;;;;;;;4402560;32;20252;-56
2022/06/16 06:06:53;;;;;;;7.05;3.45;;;;;;;;;;4402007;32;20265;-56
2022/06/16 06:17:32;;;;;;;4.40;4.00;;;;;;;;;;4402370;32;20251;-56
2022/06/16 06:19:57;;;;;;;4.60;3.37;;;;;;;;;;4402284;32;20221;-56
2022/06/16 06:22:27;;;;;;;8.90;4.53;;;;;;;;;;4401649;32;20201;-56
2022/06/16 06:24:55;;;;;;;7.37;4.25;;;;;;;;;;4401879;32;20278;-56
2022/06/16 06:27:32;;;;;;;6.43;3.85;;;;;;;;;;4402141;32;20256;-57
2022/06/16 06:29:57;;;;;;;14.05;5.03;;;;;;;;;;4401821;32;20301;-56
2022/06/16 06:32:25;;;;;;;15.75;3.80;;;;;;;;;;4402046;32;20320;-56
2022/06/16 06:34:50;;;;;;;5.53;3.40;;;;;;;;;;4402395;32;20292;-56
2022/06/16 06:37:20;;;;;;;5.12;4.03;;;;;;;;;;4392733;32;20222;-57
2022/06/16 06:39:46;;;;;;;8.75;4.15;;;;;;;;;;4373105;32;20676;-56
2022/06/16 06:42:12;;;;;;;8.55;3.80;;;;;;;;;;4386610;32;20338;-57
2022/06/16 06:44:37;;;;;;;7.87;4.53;;;;;;;;;;4385930;32;20230;-57
2022/06/16 06:47:04;;;;;;;8.77;4.03;;;;;;;;;;4395696;32;20214;-57
2022/06/16 06:49:29;;;;;;;4.50;3.60;;;;;;;;;;4402151;32;20247;-57
2022/06/16 06:51:55;;;;;;;9.05;4.22;;;;;;;;;;4401857;32;20201;-57
2022/06/16 06:54:21;;;;;;;12.68;4.00;;;;;;;;;;4402427;32;20213;-57
2022/06/16 06:56:48;;;;;;;4.90;4.25;;;;;;;;;;4401965;32;20408;-57
2022/06/16 06:59:18;;;;;;;6.07;3.95;;;;;;;;;;4388095;32;20340;-57
2022/06/16 07:01:45;;;;;;;13.88;4.75;;;;;;;;;;4401967;32;20476;-57
2022/06/16 07:04:10;;;;;;;5.15;4.47;;;;;;;;;;4402077;32;20656;-57
2022/06/16 07:06:37;;;;;;;8.65;5.30;;;;;;;;;;4401887;32;20218;-57
2022/06/16 07:09:03;;;;;;;6.28;4.80;;;;;;;;;;4388279;32;20229;-57
2022/06/16 07:11:29;;;;;;;9.95;5.35;;;;;;;;;;4402398;32;20217;-57
2022/06/16 07:13:54;;;;;;;5.22;4.35;;;;;;;;;;4402106;32;20255;-57
2022/06/16 07:16:21;;;;;;;6.35;4.53;;;;;;;;;;4402602;32;20221;-57
2022/06/16 07:18:47;;;;;;;15.23;4.97;;;;;;;;;;4401901;32;20222;-57
2022/06/16 07:21:14;;;;;;;7.93;4.60;;;;;;;;;;4401146;32;20208;-56
2022/06/16 07:23:40;;;;;;;15.65;6.18;;;;;;;;;;4401838;32;20271;-57
2022/06/16 07:26:06;;;;;;;12.43;7.12;;;;;;;;;;4401923;32;20318;-57
2022/06/16 07:28:31;;;;;;;8.68;6.10;;;;;;;;;;4401890;32;20292;-57
2022/06/16 07:30:57;;;;;;;7.35;5.97;;;;;;;;;;4401767;32;20208;-57
2022/06/16 07:33:23;;;;;;;7.87;6.55;;;;;;;;;;4402001;32;20547;-56
2022/06/16 07:35:50;;;;;;;15.65;10.32;;;;;;;;;;4401249;32;20542;-57
2022/06/16 07:38:15;;;;;;;23.35;9.80;;;;;;;;;;4386936;32;20681;-56
2022/06/16 07:40:41;;;;;;;10.82;9.07;;;;;;;;;;4387740;32;20297;-56
2022/06/16 07:43:08;;;;;;;12.93;10.00;;;;;;;;;;4387804;32;20295;-56
2022/06/16 07:45:35;;;;;;;13.23;11.75;;;;;;;;;;4389392;32;20206;-56
2022/06/16 07:48:03;;;;;;;13.35;10.52;;;;;;;;;;4389987;32;20217;-56
2022/06/16 07:50:31;;;;;;;11.10;9.18;;;;;;;;;;4404199;32;20260;-56
2022/06/16 07:52:56;;;;;;;11.68;9.27;;;;;;;;;;4404383;32;20201;-56
2022/06/16 07:55:22;;;;;;;12.18;10.23;;;;;;;;;;4404892;32;20210;-56
2022/06/16 07:57:50;;;;;;;11.05;9.07;;;;;;;;;;4404308;32;20266;-56
2022/06/16 08:00:20;;;;;;;11.15;10.05;;;;;;;;;;4390650;32;20763;-57
2022/06/16 08:02:45;;;;;;;19.30;10.52;;;;;;;;;;4404532;32;20205;-56
2022/06/16 08:05:12;;;;;;;15.65;9.35;;;;;;;;;;4404115;32;20357;-56
2022/06/16 08:07:39;;;;;;;11.23;8.30;;;;;;;;;;4404134;32;20194;-56
2022/06/16 08:10:08;;;;;;;9.95;8.65;;;;;;;;;;4404398;32;20257;-57
2022/06/16 08:12:34;;;;;;;12.27;8.43;;;;;;;;;;4404062;32;20217;-56
2022/06/16 08:15:00;;;;;;;10.80;8.00;;;;;;;;;;4404138;32;20260;-56
2022/06/16 08:17:32;;;;;;;15.00;8.82;;;;;;;;;;4403847;32;20214;-56
2022/06/16 08:19:59;;;;;;;10.30;7.85;;;;;;;;;;4404666;32;20236;-57
2022/06/16 08:22:26;;;;;;;9.70;7.82;;;;;;;;;;4403586;32;20590;-56
2022/06/16 08:24:52;;;;;;;9.18;7.82;;;;;;;;;;4404059;32;20345;-56
2022/06/16 08:27:20;;;;;;;8.10;7.30;;;;;;;;;;4403973;32;20210;-57
2022/06/16 08:29:46;;;;;;;10.00;8.82;;;;;;;;;;4404069;32;20224;-57
2022/06/16 08:32:15;;;;;;;10.98;8.45;;;;;;;;;;4403948;32;20415;-56
2022/06/16 08:34:40;;;;;;;12.10;10.13;;;;;;;;;;4404255;32;20496;-56
2022/06/16 08:37:06;;;;;;;14.32;9.05;;;;;;;;;;4395398;32;20214;-56
2022/06/16 08:39:31;;;;;;;14.68;8.23;;;;;;;;;;4388994;32;20284;-57
2022/06/16 08:42:04;;;;;;;16.83;9.73;;;;;;;;;;4388741;32;20686;-57
2022/06/16 08:44:40;;;;;;;10.88;9.10;;;;;;;;;;4388494;32;20614;-57
2022/06/16 08:47:20;;;;;;;17.10;10.18;;;;;;;;;;4383963;32;20248;-57
2022/06/16 08:50:24;;;;;;;14.77;8.85;;;;;;;;;;4403959;32;20282;-57
2022/06/16 08:53:06;;;;;;;17.20;10.18;;;;;;;;;;4380247;32;20251;-57
2022/06/16 08:55:48;;;;;;;12.52;9.25;;;;;;;;;;4389756;32;20293;-58
2022/06/16 08:58:27;;;;;;;14.70;9.70;;;;;;;;;;4403794;32;20217;-58
2022/06/16 09:01:06;;;;;;;12.85;9.02;;;;;;;;;;4394462;32;20243;-58
2022/06/16 09:04:11;;;;;;;13.15;9.57;;;;;;;;;;4388151;32;20629;-58
2022/06/16 09:06:43;;;;;;;16.40;10.18;;;;;;;;;;4326107;33;20782;-58
2022/06/16 09:12:28;;;;;;;11.50;8.75;;;;;;;;;;4379209;32;20271;-58
2022/06/16 09:15:13;;;;;;;10.27;8.90;;;;;;;;;;4390012;32;20736;-58
2022/06/16 09:17:42;;;;;;;11.43;8.52;;;;;;;;;;4390124;32;20205;-58
2022/06/16 09:20:26;;;;;;;9.40;8.38;;;;;;;;;;4403261;32;20229;-58
2022/06/16 09:23:07;;;;;;;9.57;8.63;;;;;;;;;;4387753;32;20427;-58
2022/06/16 09:25:42;;;;;;;11.25;8.90;;;;;;;;;;4388145;32;20263;-58
2022/06/16 09:28:16;;;;;;;10.18;7.47;;;;;;;;;;4388226;32;20205;-58
2022/06/16 09:30:44;;;;;;;13.13;8.40;;;;;;;;;;4388116;32;20306;-58
2022/06/16 09:33:19;;;;;;;8.82;7.35;;;;;;;;;;4388169;32;20562;-58
2022/06/16 09:35:57;;;;;;;8.40;5.95;;;;;;;;;;4388365;32;20221;-58
2022/06/16 09:38:51;;;;;;;10.45;6.07;;;;;;;;;;4388092;32;20336;-58
2022/06/16 09:45:08;;;;;;;9.10;5.57;;;;;;;;;;4387518;32;20801;-57
2022/06/16 09:47:49;;;;;;;5.18;4.70;;;;;;;;;;4366262;32;20214;-58
2022/06/16 09:50:24;;;;;;;11.38;5.75;;;;;;;;;;4387746;32;20199;-58
2022/06/16 09:53:37;;;;;;;6.22;4.47;;;;;;;;;;4387487;32;20283;-58
2022/06/16 09:56:45;;;;;;;5.97;4.22;;;;;;;;;;4351792;32;20267;-58
2022/06/16 09:59:16;;;;;;;4.78;3.58;;;;;;;;;;4370295;32;20234;-58
2022/06/16 10:02:05;;;;;;;6.60;3.28;;;;;;;;;;4391686;32;20716;-59
2022/06/16 10:04:31;;;;;;;11.40;3.30;;;;;;;;;;4402595;32;20336;-59
2022/06/16 10:07:03;;;;;;;6.05;3.78;;;;;;;;;;4287552;32;20669;-58
2022/06/16 10:09:51;;;;;;;4.15;2.92;;;;;;;;;;4402121;32;20214;-58
2022/06/16 10:12:32;;;;;;;4.82;2.97;;;;;;;;;;4364103;32;20206;-58
2022/06/16 10:15:06;;;;;;;4.28;3.53;;;;;;;;;;4402953;32;20366;-58
2022/06/16 10:17:34;;;;;;;7.78;3.08;;;;;;;;;;4402292;32;20275;-58
2022/06/16 10:20:01;;;;;;;4.87;2.85;;;;;;;;;;4402100;32;20585;-58
2022/06/16 10:22:30;;;;;;;7.47;3.45;;;;;;;;;;4402049;32;20287;-58
2022/06/16 10:25:02;;;;;;;3.65;3.35;;;;;;;;;;4402150;32;20304;-58
2022/06/16 10:27:59;;;;;;;11.48;4.22;;;;;;;;;;4402013;32;20278;-58
2022/06/16 10:30:38;;;;;;;4.85;3.35;;;;;;;;;;4402002;32;20249;-58
2022/06/16 10:33:26;;;;;;;5.15;3.97;;;;;;;;;;4401800;32;20201;-57
2022/06/16 10:36:16;;;;;;;6.50;3.28;;;;;;;;;;4402252;32;20685;-57
2022/06/16 10:39:06;;;;;;;6.07;2.95;;;;;;;;;;4386981;32;20350;-57
2022/06/16 10:41:49;;;;;;;6.28;2.90;;;;;;;;;;4386716;32;20358;-57
2022/06/16 10:44:15;;;;;;;6.05;3.10;;;;;;;;;;4387353;32;20623;-57
2022/06/16 10:46:49;;;;;;;3.65;2.10;;;;;;;;;;4393542;32;20213;-58
2022/06/16 10:49:19;;;;;;;4.78;2.53;;;;;;;;;;4402304;32;20530;-57
2022/06/16 10:52:14;;;;;;;6.22;2.70;;;;;;;;;;4402272;32;20571;-58
2022/06/16 10:54:54;;;;;;;4.20;2.42;;;;;;;;;;4398282;32;20230;-58
2022/06/16 10:57:25;;;;;;;3.55;2.67;;;;;;;;;;4402189;32;20193;-58
2022/06/16 11:00:04;;;;;;;6.20;2.75;;;;;;;;;;4401583;32;20529;-57
2022/06/16 11:02:35;;;;;;;7.50;3.08;;;;;;;;;;4401897;32;20228;-57
2022/06/16 11:05:12;;;;;;;4.05;2.75;;;;;;;;;;4401654;32;20213;-57
2022/06/16 11:07:41;;;;;;;3.33;2.78;;;;;;;;;;4401479;32;20327;-57
2022/06/16 11:10:15;;;;;;;5.72;3.20;;;;;;;;;;4401568;32;20243;-57
2022/06/16 11:12:46;;;;;;;5.15;2.60;;;;;;;;;;4402209;32;20338;-57
2022/06/16 11:15:48;;;;;;;4.43;2.75;;;;;;;;;;4400968;32;20314;-58
2022/06/16 11:18:19;;;;;;;3.55;2.62;;;;;;;;;;4378778;32;20340;-58
2022/06/16 11:20:48;;;;;;;4.30;2.78;;;;;;;;;;4391198;32;20209;-57
2022/06/16 11:23:33;;;;;;;6.72;3.00;;;;;;;;;;4389471;32;20225;-58
2022/06/16 11:26:19;;;;;;;3.55;2.60;;;;;;;;;;4395446;32;20286;-58
2022/06/16 11:28:52;;;;;;;5.25;2.83;;;;;;;;;;4402123;32;20298;-57
2022/06/16 11:31:21;;;;;;;3.42;2.72;;;;;;;;;;4404354;32;20263;-57
2022/06/16 11:34:08;;;;;;;5.55;2.55;;;;;;;;;;4390062;32;20322;-57
2022/06/16 11:36:51;;;;;;;5.45;3.10;;;;;;;;;;4393764;32;20205;-58
2022/06/16 11:39:39;;;;;;;4.90;2.65;;;;;;;;;;4393578;32;20264;-58
2022/06/16 11:42:17;;;;;;;9.48;3.08;;;;;;;;;;4395987;32;20229;-58
2022/06/16 11:45:04;;;;;;;4.82;2.87;;;;;;;;;;4393698;32;20222;-58
2022/06/16 11:47:37;;;;;;;10.20;2.67;;;;;;;;;;4376549;32;20217;-59
2022/06/16 11:50:23;;;;;;;7.72;3.40;;;;;;;;;;4375706;32;20301;-59
2022/06/16 11:53:01;;;;;;;3.87;3.20;;;;;;;;;;4397235;32;20595;-59
2022/06/16 11:56:19;;;;;;;24.27;4.28;;;;;;;;;;4394482;32;20209;-58
2022/06/16 11:58:47;;;;;;;6.45;2.95;;;;;;;;;;4365507;32;20226;-58
2022/06/16 12:01:31;;;;;;;3.53;2.92;;;;;;;;;;4389319;32;20537;-58
2022/06/16 12:04:30;;;;;;;9.73;3.03;;;;;;;;;;4389034;32;20803;-58
2022/06/16 12:07:30;;;;;;;3.12;2.72;;;;;;;;;;4389490;32;20258;-57
2022/06/16 12:10:11;;;;;;;4.28;3.45;;;;;;;;;;4360436;32;20264;-57
2022/06/16 12:12:46;;;;;;;4.80;3.37;;;;;;;;;;4391013;32;20213;-58
2022/06/16 12:15:17;;;;;;;5.07;3.10;;;;;;;;;;4401058;32;20574;-58
2022/06/16 12:18:19;;;;;;;10.18;3.45;;;;;;;;;;4403462;32;20314;-57
2022/06/16 12:21:20;;;;;;;4.05;3.25;;;;;;;;;;4388821;32;20666;-56
2022/06/16 12:24:07;;;;;;;7.35;3.15;;;;;;;;;;4341769;33;20643;-56
2022/06/16 12:26:44;;;;;;;7.82;3.40;;;;;;;;;;4387434;32;20201;-56
2022/06/16 12:29:17;;;;;;;6.70;3.72;;;;;;;;;;4403860;32;20594;-57
2022/06/16 12:31:57;;;;;;;4.18;3.60;;;;;;;;;;4404182;32;20194;-56
2022/06/16 12:34:47;;;;;;;6.47;3.40;;;;;;;;;;4403432;32;20673;-56
2022/06/16 12:37:18;;;;;;;24.05;4.53;;;;;;;;;;4395182;32;20355;-56
2022/06/16 12:39:56;;;;;;;6.80;3.45;;;;;;;;;;4388940;32;20302;-56
2022/06/16 12:42:25;;;;;;;4.80;3.35;;;;;;;;;;4388751;32;20327;-57
2022/06/16 12:45:06;;;;;;;3.70;3.03;;;;;;;;;;4400970;32;20229;-57
2022/06/16 12:47:48;;;;;;;3.65;3.00;;;;;;;;;;4388541;32;20638;-57
2022/06/16 12:50:20;;;;;;;12.55;4.62;;;;;;;;;;4374617;32;20202;-57
2022/06/16 12:52:54;;;;;;;4.40;3.60;;;;;;;;;;4388431;32;20583;-57
2022/06/16 12:55:26;;;;;;;9.60;3.75;;;;;;;;;;4387314;32;20292;-57
2022/06/16 12:58:21;;;;;;;12.48;3.53;;;;;;;;;;4388435;32;20291;-57
2022/06/16 13:00:54;;;;;;;3.83;3.20;;;;;;;;;;4376230;32;20244;-57
2022/06/16 13:03:26;;;;;;;4.72;3.10;;;;;;;;;;4388415;32;20238;-56
2022/06/16 13:05:56;;;;;;;4.97;3.12;;;;;;;;;;4388031;32;20321;-57
2022/06/16 13:08:24;;;;;;;17.45;4.30;;;;;;;;;;4392263;32;20292;-57
2022/06/16 13:10:54;;;;;;;4.78;3.12;;;;;;;;;;4386560;32;20288;-57
2022/06/16 13:13:27;;;;;;;22.60;4.28;;;;;;;;;;4388442;32;20685;-57
2022/06/16 13:15:55;;;;;;;9.75;3.62;;;;;;;;;;4397322;32;20256;-57
2022/06/16 13:18:29;;;;;;;6.15;3.17;;;;;;;;;;4396962;32;20707;-57
2022/06/16 13:21:05;;;;;;;3.15;2.85;;;;;;;;;;4386823;32;20269;-57
2022/06/16 13:23:37;;;;;;;5.53;3.25;;;;;;;;;;4388169;32;20758;-57
2022/06/16 13:26:18;;;;;;;7.40;2.75;;;;;;;;;;4387942;32;20213;-57
2022/06/16 13:29:17;;;;;;;10.02;3.50;;;;;;;;;;4387968;32;20594;-57
2022/06/16 13:31:42;;;;;;;6.47;3.25;;;;;;;;;;4387875;32;20626;-57
2022/06/16 13:34:08;;;;;;;4.93;3.28;;;;;;;;;;4387262;32;20249;-57
2022/06/16 13:36:33;;;;;;;5.70;3.10;;;;;;;;;;4392198;32;20253;-57
2022/06/16 13:39:05;;;;;;;4.95;3.10;;;;;;;;;;4402239;32;20249;-57
2022/06/16 13:41:58;;;;;;;4.50;2.62;;;;;;;;;;4387798;32;20202;-57
2022/06/16 13:44:26;;;;;;;5.07;3.30;;;;;;;;;;4397625;32;20226;-57
2022/06/16 13:46:54;;;;;;;5.75;3.55;;;;;;;;;;4390390;32;20285;-57
2022/06/16 13:49:46;;;;;;;5.07;2.90;;;;;;;;;;4387390;32;20741;-57
2022/06/16 13:52:11;;;;;;;3.80;3.17;;;;;;;;;;4379148;32;20694;-57
2022/06/16 13:54:37;;;;;;;19.70;3.83;;;;;;;;;;4387690;32;20263;-57
2022/06/16 13:57:22;;;;;;;5.22;3.03;;;;;;;;;;4387430;32;20233;-57
2022/06/16 13:59:54;;;;;;;4.97;2.78;;;;;;;;;;4387418;32;20245;-57
2022/06/16 14:02:23;;;;;;;5.00;3.30;;;;;;;;;;4387642;32;20590;-57
2022/06/16 14:05:09;;;;;;;11.73;3.28;;;;;;;;;;4386909;32;20351;-57
2022/06/16 14:07:36;;;;;;;4.75;3.03;;;;;;;;;;4387433;32;20248;-57
2022/06/16 14:10:44;;;;;;;5.05;3.17;;;;;;;;;;4387306;32;20514;-56
2022/06/16 14:13:13;;;;;;;4.70;3.45;;;;;;;;;;4387374;32;20632;-57
2022/06/16 14:15:51;;;;;;;4.70;3.60;;;;;;;;;;4395044;32;20269;-57
2022/06/16 14:18:54;;;;;;;12.30;3.87;;;;;;;;;;4401662;32;20636;-57
2022/06/16 14:21:27;;;;;;;3.28;2.90;;;;;;;;;;4378701;32;20622;-57
2022/06/16 14:24:01;;;;;;;7.78;3.53;;;;;;;;;;4401198;32;20274;-57
2022/06/16 14:26:30;;;;;;;4.28;3.35;;;;;;;;;;4402376;32;20232;-57
2022/06/16 14:29:03;;;;;;;5.50;2.90;;;;;;;;;;4402492;32;20248;-57
2022/06/16 14:31:39;;;;;;;4.75;2.75;;;;;;;;;;4402753;32;20236;-58
2022/06/16 14:34:13;;;;;;;4.10;2.50;;;;;;;;;;4402088;32;20649;-58
2022/06/16 14:37:10;;;;;;;2.58;2.35;;;;;;;;;;4382439;32;20297;-58
2022/06/16 14:39:45;;;;;;;7.82;3.78;;;;;;;;;;4374073;32;20278;-59
2022/06/16 14:42:32;;;;;;;3.95;2.85;;;;;;;;;;4395939;32;20212;-58
2022/06/16 14:45:02;;;;;;;6.55;2.90;;;;;;;;;;4401171;32;20507;-58
2022/06/16 14:47:47;;;;;;;4.28;2.75;;;;;;;;;;4391287;32;20206;-58
2022/06/16 14:50:25;;;;;;;3.72;2.75;;;;;;;;;;4404104;32;20663;-59
2022/06/16 14:53:05;;;;;;;5.85;3.03;;;;;;;;;;4405563;32;20243;-59
2022/06/16 14:55:52;;;;;;;3.58;2.90;;;;;;;;;;4406188;32;20251;-60
2022/06/16 14:58:20;;;;;;;4.07;3.05;;;;;;;;;;4405253;32;20723;-57
2022/06/16 15:00:52;;;;;;;4.10;2.97;;;;;;;;;;4404221;32;20316;-58
2022/06/16 15:03:26;;;;;;;7.87;3.15;;;;;;;;;;4404895;32;20225;-58
2022/06/16 15:05:52;;;;;;;2.83;2.22;;;;;;;;;;4405105;32;20433;-59
2022/06/16 15:08:27;;;;;;;3.85;2.70;;;;;;;;;;4405331;32;20217;-58
2022/06/16 15:10:57;;;;;;;4.05;3.08;;;;;;;;;;4404606;32;20225;-58
2022/06/16 15:13:25;;;;;;;7.65;3.22;;;;;;;;;;4404955;32;20381;-58
2022/06/16 15:16:00;;;;;;;4.45;2.80;;;;;;;;;;4405312;32;20209;-58
2022/06/16 15:18:32;;;;;;;6.78;3.42;;;;;;;;;;4397915;32;20229;-58
2022/06/16 15:21:03;;;;;;;6.75;2.72;;;;;;;;;;4389750;32;20437;-58
2022/06/16 15:23:34;;;;;;;6.85;3.42;;;;;;;;;;4390001;32;20248;-58
2022/06/16 15:26:03;;;;;;;4.50;3.10;;;;;;;;;;4399522;32;20243;-58
2022/06/16 15:28:40;;;;;;;10.80;2.75;;;;;;;;;;4404938;32;20225;-58
2022/06/16 15:31:09;;;;;;;8.85;3.12;;;;;;;;;;4391079;32;20252;-59
2022/06/16 15:36:32;;;;;;;7.75;3.25;;;;;;;;;;4400281;32;20326;-58